Corpus Christi, TX (78418)

2:33 PM CDT on September 01, 2015 (GMT -0500)
Flour Bluff | | Change Station
CLOSE
Current Station
Personal Weather Station
Location: Corpus Christi, TX
Elevation: 16 ft
Nearby Weather Stations

Elev 16 ft 27.65 °N, 97.30 °W | Updated 13 seconds ago

Mostly Cloudy
Mostly Cloudy
86.6 °F
Feels Like 96 °F
N
5.0
Wind Variable Wind from ENE
Gusts 9.0 mph

Today
High -- | Low -- °F
--% Chance of Precip.
Yesterday
High -- | Low -- °F
Precip. -- in
7:07 AM 7:49 PM
Waning Gibbous, 87% visible
Pressure 29.99 in
Visibility 10.0 miles
Clouds Few 2100 ft
Scattered Clouds 9000 ft
Mostly Cloudy 20000 ft
Mostly Cloudy 25000 ft
Heat Index 96 °F
Dew Point 75 °F
Humidity 68%
Rainfall 0.12 in
Snow Depth Not available.
UV 3.8 out of 12
Pollen 5.70 out of 12
Air Quality Not available.
Flu Activity Not available.
METAR KNGP 011856Z 14009KT 10SM FEW021 SCT090 BKN200 BKN250 30/23 A2999 RMK AO2 SLP154 TCU DSNT NE T2 SET T03000228
Pressure 29.99 in
Visibility 10.0 miles
Clouds Few 2100 ft
Scattered Clouds 9000 ft
Mostly Cloudy 20000 ft
Mostly Cloudy 25000 ft
Heat Index 96 °F
Dew Point 75 °F
Humidity 68%
Rainfall 0.12 in
Snow Depth Not available.
UV 3.8 out of 12
Pollen 5.70 out of 12
Air Quality Not available.
Flu Activity Not available.
METAR KNGP 011856Z 14009KT 10SM FEW021 SCT090 BKN200 BKN250 30/23 A2999 RMK AO2 SLP154 TCU DSNT NE T2 SET T03000228
Nowcast | as of 1:55 PM CDT on September 1, 2015

Through 4 PM CDT...isolated showers will continue to affect portions of the coastal Bend...the Victoria Crossroads and the middle Texas coastal waters. An isolated thunderstorm is also possible. Rainfall should generally be moderate to occasionally heavy with rainfall amounts less than a tenth of an inch.

×

10-Day Weather Forecast

×

Almanac

Astronomy

Sep. 01, 2015 Rise Set
Actual Time
Civil Twilight
Nautical Twilight
Astronomical Twilight
Moon
Length of Visible Light
Length of Day
Tomorrow will be .
, % of the Moon is Illuminated

Today's Extremes

State Highs State Lows

Community

WunderPhotos

Upload Photos

1,851,597 photos uploaded!

WunderBlogs® & News

Nearby

Air Quality

  Air Quality AQ Index Pollutant
Not available.

Snow Depth

Station Depth Elevation

Earthquake Activity

City Distance Mag. Time & Date
Minimum magnitude displayed is 2.5.

Coastal Water Temperatures

Place Temperature

Stations

Nearby Weather Stations

Station Location Temp. Windchill Dew Point Humidity Wind Precip. Elev Updated Type